Time;durP1;ratioP1;P1;durP2;ratioP2;P2;SDS_P1;SDS_P2;PMS_P1;PMS_P2;Temp;Humidity;BMP_temperature;BMP_pressure;BME280_temperature;BME280_humidity;BME280_pressure;Samples;Min_cycle;Max_cycle;Signal;HPM_P1;HPM_P2
2022/10/31 05:00:44;;;;;;;12.43;10.23;;;12.10;99.90;;;;;;5816444;23;20463;-66
2022/10/31 05:03:11;;;;;;;11.53;10.43;;;12.10;99.90;;;;;;4977325;28;20427;-66
2022/10/31 05:05:38;;;;;;;10.83;9.60;;;12.10;99.90;;;;;;4976741;28;20458;-67
2022/10/31 05:08:05;;;;;;;11.83;10.27;;;12.00;99.90;;;;;;4976345;28;20444;-67
2022/10/31 05:10:32;;;;;;;12.43;10.60;;;12.00;99.90;;;;;;4976064;28;20494;-67
2022/10/31 05:13:01;;;;;;;13.83;10.77;;;11.90;99.90;;;;;;4975594;28;20479;-66
2022/10/31 05:15:28;;;;;;;13.57;10.53;;;11.90;99.90;;;;;;4975785;28;20509;-66
2022/10/31 05:17:57;;;;;;;12.23;10.13;;;11.90;99.90;;;;;;4975446;28;20515;-66
2022/10/31 05:20:27;;;;;;;13.37;10.27;;;12.00;99.90;;;;;;4976679;28;20454;-67
2022/10/31 05:22:55;;;;;;;10.57;9.47;;;12.00;99.90;;;;;;4975854;28;20450;-67
2022/10/31 05:25:24;;;;;;;13.17;10.77;;;12.00;99.90;;;;;;4975665;28;20462;-65
2022/10/31 05:27:53;;;;;;;18.43;10.67;;;11.90;99.90;;;;;;4975691;28;20856;-67
2022/10/31 05:30:21;;;;;;;14.23;10.27;;;11.90;99.90;;;;;;4975826;28;20462;-67
2022/10/31 05:32:49;;;;;;;12.27;11.07;;;11.90;99.90;;;;;;4975489;28;20474;-66
2022/10/31 05:35:19;;;;;;;14.43;10.50;;;11.90;99.90;;;;;;4975844;28;20525;-67
2022/10/31 05:37:46;;;;;;;14.33;11.10;;;12.00;99.90;;;;;;4975136;28;20454;-67
2022/10/31 05:40:15;;;;;;;14.07;10.50;;;11.90;99.90;;;;;;4975119;28;20533;-67
2022/10/31 05:42:42;;;;;;;16.40;10.43;;;11.90;99.90;;;;;;4975489;28;20466;-67
2022/10/31 05:45:10;;;;;;;15.57;10.90;;;11.80;99.90;;;;;;4975040;28;20469;-66
2022/10/31 05:47:36;;;;;;;13.10;11.40;;;11.80;99.90;;;;;;4974954;28;20462;-67
2022/10/31 05:50:04;;;;;;;15.37;11.73;;;11.80;99.90;;;;;;4976063;28;20588;-67
2022/10/31 05:52:32;;;;;;;11.50;10.23;;;11.80;99.90;;;;;;4974845;28;20479;-67
2022/10/31 05:54:59;;;;;;;16.90;11.30;;;11.70;99.90;;;;;;4975265;28;20509;-66
2022/10/31 05:57:26;;;;;;;15.17;10.97;;;11.70;99.90;;;;;;4974674;28;20505;-66
2022/10/31 05:59:53;;;;;;;16.53;10.33;;;11.70;99.90;;;;;;4975280;28;20455;-67
2022/10/31 06:02:20;;;;;;;15.07;12.17;;;11.70;99.90;;;;;;4974737;28;20569;-66
2022/10/31 06:04:46;;;;;;;13.77;11.77;;;11.60;99.90;;;;;;4975208;28;20467;-67
2022/10/31 06:07:13;;;;;;;13.43;10.80;;;11.60;99.90;;;;;;4975959;28;20582;-68
2022/10/31 06:09:41;;;;;;;13.73;12.07;;;11.60;99.90;;;;;;4978989;28;20489;-69
2022/10/31 06:12:08;;;;;;;16.13;10.70;;;11.60;99.90;;;;;;4978793;28;20496;-67
2022/10/31 06:14:34;;;;;;;12.53;11.30;;;11.60;99.90;;;;;;4978826;28;20478;-68
2022/10/31 06:17:01;;;;;;;11.70;10.30;;;11.50;99.90;;;;;;4979272;28;20506;-68
2022/10/31 06:19:27;;;;;;;15.87;11.20;;;11.50;99.90;;;;;;4978761;28;20458;-67
2022/10/31 06:21:54;;;;;;;14.43;11.40;;;11.50;99.90;;;;;;4978301;28;20977;-67
2022/10/31 06:24:21;;;;;;;12.50;10.63;;;11.50;99.90;;;;;;4979113;28;20439;-68
2022/10/31 06:26:49;;;;;;;15.10;11.70;;;11.50;99.90;;;;;;4978533;28;20794;-67
2022/10/31 06:29:15;;;;;;;12.40;10.53;;;11.50;99.90;;;;;;4978593;28;20865;-68
2022/10/31 06:31:42;;;;;;;12.13;10.83;;;11.50;99.90;;;;;;4977942;28;20510;-66
2022/10/31 06:34:09;;;;;;;11.43;10.30;;;11.50;99.90;;;;;;4978277;28;20474;-67
2022/10/31 06:36:35;;;;;;;12.17;10.40;;;11.60;99.90;;;;;;4978646;28;20450;-66
2022/10/31 06:39:02;;;;;;;13.50;9.93;;;11.60;99.90;;;;;;4978475;28;20469;-64
2022/10/31 06:41:29;;;;;;;11.20;9.70;;;11.70;99.90;;;;;;4978556;28;20529;-64
2022/10/31 06:43:56;;;;;;;11.17;9.10;;;11.80;99.90;;;;;;4978122;28;20454;-64
2022/10/31 06:46:23;;;;;;;10.30;9.30;;;11.80;99.90;;;;;;4977990;28;20992;-64
2022/10/31 06:48:50;;;;;;;12.10;9.03;;;12.00;99.90;;;;;;4978125;28;20458;-64
2022/10/31 06:51:16;;;;;;;9.33;8.43;;;12.10;99.90;;;;;;4978093;28;20479;-65
2022/10/31 06:53:43;;;;;;;10.53;9.47;;;12.20;99.90;;;;;;4977983;28;20521;-66
2022/10/31 06:56:10;;;;;;;10.43;9.23;;;12.20;99.90;;;;;;4978159;28;20515;-66
2022/10/31 06:58:36;;;;;;;9.17;8.23;;;12.30;99.90;;;;;;4978387;28;20473;-66
2022/10/31 07:01:04;;;;;;;14.00;8.43;;;12.50;99.90;;;;;;4977736;28;20517;-67
2022/10/31 07:03:31;;;;;;;11.17;7.90;;;12.70;99.90;;;;;;4978007;28;20832;-66
2022/10/31 07:05:58;;;;;;;10.03;7.50;;;12.90;99.90;;;;;;4977804;28;20509;-66
2022/10/31 07:08:25;;;;;;;8.97;7.80;;;13.10;99.90;;;;;;4980328;28;20460;-66
2022/10/31 07:10:53;;;;;;;10.90;7.70;;;13.20;99.90;;;;;;4978017;28;20474;-66
2022/10/31 07:13:24;;;;;;;8.73;7.73;;;13.50;99.90;;;;;;4977432;28;20993;-66
2022/10/31 07:15:51;;;;;;;11.67;8.10;;;13.60;99.90;;;;;;4977649;28;20443;-66
2022/10/31 07:18:19;;;;;;;9.03;7.63;;;13.80;99.90;;;;;;4977130;28;20870;-66
2022/10/31 07:20:46;;;;;;;11.77;6.77;;;14.00;99.90;;;;;;4977148;28;20474;-66
2022/10/31 07:23:13;;;;;;;13.20;7.90;;;14.40;99.90;;;;;;4977288;28;20997;-66
2022/10/31 07:25:40;;;;;;;9.20;6.90;;;15.00;99.90;;;;;;4977190;28;21000;-66
2022/10/31 07:28:07;;;;;;;9.90;6.60;;;15.60;99.90;;;;;;4977393;28;20461;-66
2022/10/31 07:30:34;;;;;;;7.90;7.13;;;16.00;99.90;;;;;;4977382;28;20474;-65
2022/10/31 07:33:00;;;;;;;11.47;7.63;;;16.40;99.90;;;;;;4976888;28;20822;-66
2022/10/31 07:35:29;;;;;;;10.90;7.17;;;16.50;99.90;;;;;;4977160;28;20873;-65
2022/10/31 07:37:56;;;;;;;8.87;5.90;;;16.60;99.90;;;;;;4977132;28;20451;-66
2022/10/31 07:40:24;;;;;;;9.70;6.67;;;16.80;99.90;;;;;;4977057;28;20869;-65
2022/10/31 07:42:52;;;;;;;8.83;6.47;;;16.90;99.90;;;;;;4977367;28;20454;-66
2022/10/31 07:45:20;;;;;;;7.80;6.30;;;17.10;99.90;;;;;;4977133;28;20458;-65
2022/10/31 07:47:49;;;;;;;8.93;6.53;;;17.30;99.90;;;;;;4976830;28;20911;-66
2022/10/31 07:50:17;;;;;;;9.40;7.10;;;17.40;99.90;;;;;;4977080;28;20450;-64
2022/10/31 07:52:45;;;;;;;11.87;6.80;;;17.40;99.90;;;;;;4977351;28;20451;-65
2022/10/31 07:55:12;;;;;;;9.00;6.80;;;17.60;99.90;;;;;;4977003;28;20898;-65
2022/10/31 07:57:39;;;;;;;8.90;6.67;;;17.80;99.90;;;;;;4978110;28;20509;-65
2022/10/31 08:00:07;;;;;;;9.63;6.90;;;18.10;99.90;;;;;;4979939;28;20509;-65
2022/10/31 08:02:34;;;;;;;8.67;6.93;;;18.30;99.90;;;;;;4978031;28;20490;-65
2022/10/31 08:05:01;;;;;;;11.03;5.83;;;18.40;99.90;;;;;;4977220;28;20455;-66
2022/10/31 08:07:29;;;;;;;10.40;6.17;;;18.40;99.90;;;;;;4977349;28;20522;-65
2022/10/31 08:09:57;;;;;;;7.90;5.80;;;18.50;99.90;;;;;;4977154;28;20505;-66
2022/10/31 08:12:27;;;;;;;13.13;6.40;;;18.70;99.90;;;;;;4977370;28;20533;-65
2022/10/31 08:14:53;;;;;;;12.57;6.73;;;19.00;99.90;;;;;;4976926;28;20486;-67
2022/10/31 08:17:20;;;;;;;12.37;7.20;;;19.10;99.90;;;;;;4976859;28;20454;-66
2022/10/31 08:19:46;;;;;;;9.30;6.20;;;19.20;99.90;;;;;;4976855;28;20458;-66
2022/10/31 08:22:13;;;;;;;11.80;6.40;;;19.20;99.90;;;;;;4976566;28;20478;-65
2022/10/31 08:24:40;;;;;;;12.70;6.90;;;19.20;99.90;;;;;;4976575;28;20510;-66
2022/10/31 08:27:08;;;;;;;9.47;6.70;;;19.30;99.90;;;;;;4976392;28;20509;-66
2022/10/31 08:29:34;;;;;;;9.80;6.33;;;19.20;99.90;;;;;;4976250;28;20857;-66
2022/10/31 08:32:01;;;;;;;12.63;6.90;;;19.10;99.90;;;;;;4975991;28;20533;-66
2022/10/31 08:34:28;;;;;;;7.80;7.07;;;19.10;99.90;;;;;;4976188;28;20537;-66
2022/10/31 08:36:54;;;;;;;7.60;6.80;;;19.10;99.90;;;;;;4975939;28;20459;-66
2022/10/31 08:39:21;;;;;;;8.63;7.30;;;19.00;99.90;;;;;;4976380;28;20489;-66
2022/10/31 08:41:48;;;;;;;10.63;7.67;;;18.80;99.90;;;;;;4978748;28;20474;-66
2022/10/31 08:44:16;;;;;;;9.33;6.53;;;18.70;99.90;;;;;;4983680;28;20818;-66
2022/10/31 08:46:43;;;;;;;12.73;7.47;;;18.50;99.90;;;;;;4983084;28;20537;-66
2022/10/31 08:49:09;;;;;;;9.20;7.20;;;18.40;99.90;;;;;;4984374;28;20459;-66
2022/10/31 08:51:36;;;;;;;9.90;7.10;;;18.20;99.90;;;;;;4984729;28;20490;-66
2022/10/31 08:54:03;;;;;;;10.50;7.80;;;18.20;99.90;;;;;;4980794;28;20501;-66
2022/10/31 08:56:29;;;;;;;10.33;6.63;;;18.10;99.90;;;;;;4977078;28;20458;-66
2022/10/31 08:58:56;;;;;;;7.97;7.10;;;18.10;99.90;;;;;;4976599;28;20450;-65
2022/10/31 09:01:24;;;;;;;13.60;7.27;;;18.10;99.90;;;;;;4976121;28;20486;-65
2022/10/31 09:03:51;;;;;;;18.13;7.50;;;18.20;99.90;;;;;;4976202;28;20458;-65
2022/10/31 09:06:18;;;;;;;8.10;7.20;;;18.20;99.90;;;;;;4976780;28;20517;-65
2022/10/31 09:08:44;;;;;;;13.27;6.97;;;18.20;99.90;;;;;;4975910;28;20493;-65
2022/10/31 09:11:11;;;;;;;9.80;7.67;;;18.20;99.90;;;;;;4975986;28;20473;-65
2022/10/31 09:13:38;;;;;;;8.23;7.43;;;18.20;99.90;;;;;;4975602;28;20509;-67
2022/10/31 09:16:05;;;;;;;8.20;6.40;;;18.40;99.90;;;;;;4975725;28;20607;-65
2022/10/31 09:18:33;;;;;;;9.30;7.67;;;18.40;99.90;;;;;;4975813;28;20455;-65
2022/10/31 09:21:00;;;;;;;13.10;6.57;;;18.60;99.90;;;;;;4975537;28;20474;-67
2022/10/31 09:23:27;;;;;;;7.80;7.00;;;18.80;99.90;;;;;;4975468;28;20455;-65
2022/10/31 09:25:54;;;;;;;11.17;6.70;;;19.10;99.90;;;;;;4975530;28;20462;-66
2022/10/31 09:28:24;;;;;;;9.03;6.30;;;19.40;99.90;;;;;;4975483;28;20454;-65
2022/10/31 09:30:53;;;;;;;15.83;6.30;;;19.40;99.90;;;;;;4975349;28;20562;-66
2022/10/31 09:33:20;;;;;;;7.30;6.60;;;19.40;99.90;;;;;;4975555;28;20455;-66
2022/10/31 09:35:48;;;;;;;12.33;6.63;;;19.50;99.90;;;;;;4975534;28;20478;-66
2022/10/31 09:38:18;;;;;;;9.63;6.40;;;19.60;99.90;;;;;;4975532;28;20509;-66
2022/10/31 09:40:47;;;;;;;15.60;7.60;;;19.50;99.90;;;;;;4975560;28;20479;-66
2022/10/31 09:43:20;;;;;;;7.13;6.43;;;19.30;99.90;;;;;;4974864;28;20502;-65
2022/10/31 09:45:54;;;;;;;10.33;7.10;;;19.20;99.90;;;;;;4975455;28;20846;-66
2022/10/31 09:48:32;;;;;;;10.63;6.20;;;19.40;99.90;;;;;;4976111;28;20442;-66
2022/10/31 09:51:06;;;;;;;9.90;7.37;;;19.60;99.90;;;;;;4975332;28;20482;-67
2022/10/31 09:53:39;;;;;;;7.40;6.03;;;19.70;99.90;;;;;;4975227;28;20473;-66
2022/10/31 09:56:08;;;;;;;7.53;6.53;;;19.80;99.90;;;;;;4975275;28;20538;-66
2022/10/31 09:58:38;;;;;;;6.40;5.80;;;19.90;99.90;;;;;;4975124;28;20462;-66
2022/10/31 10:01:06;;;;;;;13.60;9.60;;;19.90;99.90;;;;;;4975005;28;20533;-66
2022/10/31 10:03:40;;;;;;;20.50;12.40;;;19.80;99.90;;;;;;4975090;28;20800;-66
2022/10/31 10:06:15;;;;;;;9.67;7.13;;;19.70;99.90;;;;;;4975194;28;20442;-66
2022/10/31 10:08:42;;;;;;;10.83;7.13;;;19.60;99.90;;;;;;4975154;28;20438;-66
2022/10/31 10:11:31;;;;;;;9.50;6.40;;;19.60;99.90;;;;;;4974701;28;20870;-66
2022/10/31 10:14:19;;;;;;;9.77;6.77;;;19.70;99.90;;;;;;4975173;28;20493;-66
2022/10/31 10:16:59;;;;;;;13.07;6.63;;;19.80;99.90;;;;;;4974639;28;20933;-66
2022/10/31 10:19:41;;;;;;;9.13;6.70;;;19.80;99.90;;;;;;4975035;28;20563;-66
2022/10/31 10:22:18;;;;;;;10.67;6.90;;;19.90;99.90;;;;;;4974806;28;20470;-67
2022/10/31 10:24:56;;;;;;;8.27;7.23;;;20.10;99.90;;;;;;4974804;28;20438;-66
2022/10/31 10:27:42;;;;;;;10.23;7.33;;;20.10;99.90;;;;;;4974672;28;20942;-66
2022/10/31 10:30:15;;;;;;;10.47;6.93;;;20.10;99.90;;;;;;4975028;28;20494;-66
2022/10/31 10:32:46;;;;;;;11.60;6.53;;;20.20;99.90;;;;;;4975212;28;20450;-66
2022/10/31 10:35:22;;;;;;;11.53;6.30;;;20.20;99.90;;;;;;4974554;28;20462;-66
2022/10/31 10:37:52;;;;;;;9.43;6.47;;;20.20;99.90;;;;;;4975432;28;20493;-65
2022/10/31 10:40:23;;;;;;;14.27;6.70;;;20.20;99.90;;;;;;4975091;28;20471;-66
2022/10/31 10:48:45;;;;;;;10.57;5.97;;;20.10;99.90;;;;;;4974643;28;20421;-65
2022/10/31 10:51:26;;;;;;;6.97;6.23;;;20.10;99.90;;;;;;4974846;28;20474;-66
2022/10/31 10:54:18;;;;;;;8.10;6.87;;;20.10;99.90;;;;;;4974959;28;20501;-65
2022/10/31 10:56:57;;;;;;;10.00;6.50;;;20.10;99.90;;;;;;4979718;28;20483;-66
2022/10/31 10:59:24;;;;;;;9.33;6.17;;;20.10;99.90;;;;;;4979318;28;20434;-65
2022/10/31 11:01:52;;;;;;;12.93;6.83;;;20.00;99.90;;;;;;4978388;28;20482;-68
2022/10/31 11:04:30;;;;;;;13.83;6.87;;;19.80;99.90;;;;;;4978240;28;20471;-68
2022/10/31 11:07:05;;;;;;;9.20;6.40;;;19.70;99.90;;;;;;4977915;28;20446;-69
2022/10/31 11:09:35;;;;;;;7.90;6.70;;;19.60;99.90;;;;;;4978340;28;20434;-70
2022/10/31 11:12:08;;;;;;;7.93;7.13;;;19.50;99.90;;;;;;4977996;28;20470;-68
2022/10/31 11:14:43;;;;;;;9.80;6.63;;;19.40;99.90;;;;;;4977864;28;20521;-70
2022/10/31 11:17:20;;;;;;;8.03;7.23;;;19.40;99.90;;;;;;4977741;28;20446;-70
2022/10/31 11:19:46;;;;;;;13.50;8.10;;;19.40;99.90;;;;;;4977531;28;20446;-68
2022/10/31 11:22:17;;;;;;;10.60;7.10;;;19.30;99.90;;;;;;4977691;28;20483;-68
2022/10/31 11:24:46;;;;;;;11.63;7.37;;;19.20;99.90;;;;;;4977598;28;20439;-68
2022/10/31 11:27:16;;;;;;;10.80;6.93;;;19.20;99.90;;;;;;4977308;28;20510;-68
2022/10/31 11:29:43;;;;;;;15.10;7.73;;;19.20;99.90;;;;;;4977605;28;20448;-69
2022/10/31 11:32:21;;;;;;;11.13;8.73;;;19.20;99.90;;;;;;4977604;28;20561;-69
2022/10/31 11:34:51;;;;;;;13.03;7.70;;;19.30;99.90;;;;;;4977262;28;20462;-69
2022/10/31 11:37:21;;;;;;;8.17;6.87;;;19.20;99.90;;;;;;4977365;28;20450;-69
2022/10/31 11:39:53;;;;;;;15.63;7.23;;;19.30;99.90;;;;;;4977215;28;20875;-68
2022/10/31 11:42:22;;;;;;;13.97;7.83;;;19.40;99.90;;;;;;4977196;28;20479;-68
2022/10/31 11:44:49;;;;;;;10.60;7.13;;;19.40;99.90;;;;;;4977546;28;20868;-68
2022/10/31 11:47:18;;;;;;;9.10;6.80;;;19.40;99.90;;;;;;4976860;28;20459;-68
2022/10/31 11:49:49;;;;;;;14.47;7.43;;;19.50;99.90;;;;;;4977051;28;20517;-68
2022/10/31 11:52:17;;;;;;;17.20;9.10;;;19.60;99.90;;;;;;4977081;28;20482;-68
2022/10/31 11:54:50;;;;;;;14.17;7.80;;;19.60;99.90;;;;;;4976884;28;20529;-69
2022/10/31 11:57:25;;;;;;;12.23;7.70;;;19.60;99.90;;;;;;4976635;28;20882;-67
2022/10/31 11:59:53;;;;;;;12.33;7.90;;;19.70;99.90;;;;;;4976688;28;20458;-66
2022/10/31 12:02:20;;;;;;;12.23;8.40;;;19.60;99.90;;;;;;4976168;28;20486;-67
2022/10/31 12:04:52;;;;;;;11.27;8.90;;;19.60;99.90;;;;;;4976229;28;20506;-67
2022/10/31 12:07:18;;;;;;;9.27;7.17;;;19.60;99.90;;;;;;4976797;28;20973;-67
2022/10/31 12:09:45;;;;;;;15.20;7.13;;;19.70;99.90;;;;;;4977212;28;20459;-67
2022/10/31 12:12:35;;;;;;;11.33;7.80;;;19.70;99.90;;;;;;4976697;28;20483;-68
2022/10/31 12:15:13;;;;;;;8.70;7.43;;;19.70;99.90;;;;;;4976723;28;20529;-67
2022/10/31 12:17:45;;;;;;;15.73;11.57;;;19.80;99.90;;;;;;4976906;28;20546;-67
2022/10/31 12:20:24;;;;;;;10.87;7.37;;;19.90;99.90;;;;;;4976932;28;20443;-67
2022/10/31 12:23:04;;;;;;;8.20;7.50;;;20.00;99.90;;;;;;4978090;28;20442;-69
2022/10/31 12:25:41;;;;;;;9.30;7.47;;;20.00;99.90;;;;;;4976905;28;20880;-69
2022/10/31 12:28:33;;;;;;;13.03;7.33;;;20.00;99.90;;;;;;4977645;28;20799;-69
2022/10/31 12:31:11;;;;;;;13.13;7.30;;;20.00;99.90;;;;;;4963441;28;20526;-67
2022/10/31 12:33:51;;;;;;;9.30;6.70;;;20.10;99.90;;;;;;4976807;28;20474;-68
2022/10/31 12:36:43;;;;;;;14.03;7.73;;;20.10;99.90;;;;;;4976163;28;20521;-68
2022/10/31 12:39:36;;;;;;;12.40;7.10;;;20.20;99.90;;;;;;4976426;28;20490;-70
2022/10/31 12:42:13;;;;;;;9.20;6.80;;;20.30;99.90;;;;;;4973118;28;20831;-70
2022/10/31 12:44:53;;;;;;;9.80;6.70;;;20.30;99.90;;;;;;4976102;28;20500;-69
2022/10/31 12:47:41;;;;;;;15.23;7.13;;;20.40;99.90;;;;;;4975991;28;20443;-69
2022/10/31 12:50:21;;;;;;;10.30;7.70;;;20.50;99.90;;;;;;4964170;28;20890;-68
2022/10/31 12:52:59;;;;;;;12.50;7.60;;;20.50;99.90;;;;;;4976684;28;20497;-69
2022/10/31 12:55:44;;;;;;;8.67;6.80;;;20.50;99.90;;;;;;4976926;28;20467;-69
2022/10/31 12:58:16;;;;;;;12.73;7.57;;;20.40;99.90;;;;;;4976402;28;20446;-70
2022/10/31 13:00:47;;;;;;;10.30;6.70;;;20.30;99.90;;;;;;4975895;28;20569;-69
2022/10/31 13:03:26;;;;;;;14.90;7.50;;;20.30;99.90;;;;;;4975843;28;20459;-70
2022/10/31 13:05:57;;;;;;;11.37;7.10;;;20.10;99.90;;;;;;4975519;28;20442;-69
2022/10/31 13:08:29;;;;;;;11.23;7.90;;;20.00;99.90;;;;;;4975062;28;20961;-69
2022/10/31 13:11:06;;;;;;;10.07;7.70;;;19.90;99.90;;;;;;4975576;28;21053;-69
2022/10/31 13:13:37;;;;;;;10.80;7.47;;;19.80;99.90;;;;;;4976744;28;20442;-69
2022/10/31 13:16:14;;;;;;;9.93;7.80;;;19.70;99.90;;;;;;4976628;28;20502;-70
2022/10/31 13:18:45;;;;;;;9.57;7.50;;;19.70;99.90;;;;;;4975457;28;20443;-68
2022/10/31 13:21:18;;;;;;;10.40;8.03;;;19.60;99.90;;;;;;4975340;28;20529;-69
2022/10/31 13:23:49;;;;;;;8.80;7.37;;;19.60;99.90;;;;;;4975571;28;20447;-69
2022/10/31 13:26:23;;;;;;;17.40;8.77;;;19.50;99.90;;;;;;4975508;28;20442;-69
2022/10/31 13:28:58;;;;;;;12.53;8.37;;;19.50;99.90;;;;;;4975024;28;20906;-68
2022/10/31 13:31:26;;;;;;;11.50;7.70;;;19.50;99.90;;;;;;4974802;28;20981;-69
2022/10/31 13:33:58;;;;;;;13.60;8.30;;;19.40;99.90;;;;;;4975188;28;20481;-69
2022/10/31 13:36:33;;;;;;;13.93;8.13;;;19.50;99.90;;;;;;4975179;28;20462;-68
2022/10/31 13:39:07;;;;;;;10.50;8.33;;;19.40;99.90;;;;;;4975393;28;20444;-69
2022/10/31 13:41:42;;;;;;;8.53;7.70;;;19.40;99.90;;;;;;4975087;28;20478;-70
2022/10/31 13:44:15;;;;;;;13.83;8.37;;;19.40;99.90;;;;;;4974918;28;20501;-68
2022/10/31 13:46:44;;;;;;;10.77;8.23;;;19.40;99.90;;;;;;4974988;28;20498;-68
2022/10/31 13:49:39;;;;;;;13.97;8.30;;;19.50;99.90;;;;;;4974819;28;20505;-69
2022/10/31 13:52:17;;;;;;;14.60;9.50;;;19.70;99.90;;;;;;4974771;28;20474;-69
2022/10/31 13:54:46;;;;;;;13.77;7.30;;;19.90;99.90;;;;;;4975539;28;20501;-69
2022/10/31 13:57:20;;;;;;;9.10;7.60;;;20.10;99.90;;;;;;4974954;28;20482;-69
2022/10/31 13:59:55;;;;;;;8.50;7.57;;;20.30;99.90;;;;;;4974838;28;20839;-68
2022/10/31 14:02:27;;;;;;;12.17;8.50;;;20.60;99.90;;;;;;4974589;28;20901;-68
2022/10/31 14:04:58;;;;;;;13.50;7.63;;;20.80;99.90;;;;;;4975022;28;20439;-69
2022/10/31 14:07:26;;;;;;;11.23;6.90;;;20.90;99.90;;;;;;4975045;28;20509;-68
2022/10/31 14:09:57;;;;;;;8.30;6.83;;;20.90;99.90;;;;;;4975104;28;20463;-69
2022/10/31 14:12:28;;;;;;;8.77;6.70;;;20.90;99.90;;;;;;4975180;28;20532;-68
2022/10/31 14:14:58;;;;;;;7.47;6.77;;;20.80;99.90;;;;;;4974982;28;20502;-68
2022/10/31 14:17:32;;;;;;;11.70;7.80;;;20.80;99.90;;;;;;4975036;28;20498;-69
2022/10/31 14:20:21;;;;;;;8.97;7.20;;;20.70;99.90;;;;;;4974988;28;20542;-69
2022/10/31 14:22:48;;;;;;;8.57;6.83;;;20.60;99.90;;;;;;4974625;28;21004;-68
2022/10/31 14:25:33;;;;;;;17.83;7.23;;;20.50;99.90;;;;;;4974798;28;20494;-69
2022/10/31 14:28:02;;;;;;;11.77;7.30;;;20.40;99.90;;;;;;4975277;28;20438;-68
2022/10/31 14:30:30;;;;;;;9.30;7.10;;;20.20;99.90;;;;;;4978010;28;20939;-68
2022/10/31 14:33:06;;;;;;;11.87;7.10;;;20.10;99.90;;;;;;4978552;28;20454;-67
2022/10/31 14:35:48;;;;;;;8.20;6.77;;;20.10;99.90;;;;;;4977984;28;20469;-69
2022/10/31 14:38:47;;;;;;;9.10;7.03;;;20.00;99.90;;;;;;4978258;28;20447;-68
2022/10/31 14:41:43;;;;;;;11.17;7.13;;;19.90;99.90;;;;;;4974152;28;20474;-69
2022/10/31 14:44:43;;;;;;;12.43;6.80;;;19.90;99.90;;;;;;4978079;28;20505;-69
2022/10/31 14:47:20;;;;;;;11.27;6.47;;;19.70;99.90;;;;;;4953738;28;20455;-68
2022/10/31 14:50:19;;;;;;;13.63;7.07;;;19.60;99.90;;;;;;4978158;28;20446;-67
2022/10/31 14:52:50;;;;;;;8.77;6.30;;;19.60;99.90;;;;;;4978068;28;20856;-68
2022/10/31 14:55:18;;;;;;;7.10;6.33;;;19.50;99.90;;;;;;4978564;28;20775;-69
2022/10/31 14:57:50;;;;;;;11.10;5.23;;;19.50;99.90;;;;;;4978032;28;20458;-68
2022/10/31 15:00:20;;;;;;;13.77;6.77;;;19.50;99.90;;;;;;4977815;28;20443;-69
2022/10/31 15:02:56;;;;;;;8.40;6.97;;;19.50;99.90;;;;;;4977897;28;20842;-68
2022/10/31 15:05:27;;;;;;;11.27;7.83;;;19.40;99.90;;;;;;4977797;28;20443;-69
2022/10/31 15:07:55;;;;;;;9.77;6.63;;;19.40;99.90;;;;;;4977817;28;20435;-68
2022/10/31 15:10:25;;;;;;;8.83;6.20;;;19.40;99.90;;;;;;4977724;28;20817;-67
2022/10/31 15:12:52;;;;;;;7.87;6.57;;;19.40;99.90;;;;;;4977709;28;20541;-68
2022/10/31 15:15:21;;;;;;;9.10;6.67;;;19.40;99.90;;;;;;4977681;28;20844;-68
2022/10/31 15:17:51;;;;;;;8.20;6.20;;;19.30;99.90;;;;;;4977203;28;20457;-68
2022/10/31 15:20:21;;;;;;;11.40;5.67;;;19.30;99.90;;;;;;4977475;28;20434;-67
2022/10/31 15:22:49;;;;;;;7.67;6.37;;;19.20;99.90;;;;;;4977521;28;20450;-66
2022/10/31 15:25:19;;;;;;;7.77;6.83;;;19.10;99.90;;;;;;4977287;28;20455;-66
2022/10/31 15:27:47;;;;;;;11.23;10.10;;;19.00;99.90;;;;;;4977303;28;20541;-66
2022/10/31 15:30:20;;;;;;;12.80;8.17;;;18.90;99.90;;;;;;4977278;28;20899;-67
2022/10/31 15:32:48;;;;;;;11.83;8.03;;;18.80;99.90;;;;;;4977063;28;20425;-69
2022/10/31 15:35:22;;;;;;;14.40;8.73;;;18.70;99.90;;;;;;4977022;28;20454;-68
2022/10/31 15:37:50;;;;;;;8.70;7.10;;;18.70;99.90;;;;;;4976611;28;20863;-67
2022/10/31 15:40:19;;;;;;;14.20;9.73;;;18.70;99.90;;;;;;4976078;28;20525;-68
2022/10/31 15:42:49;;;;;;;17.67;10.67;;;18.70;99.90;;;;;;4976748;28;20458;-68
2022/10/31 15:45:23;;;;;;;18.53;10.23;;;18.60;99.90;;;;;;4977174;28;20518;-68
2022/10/31 15:47:55;;;;;;;22.17;14.30;;;18.50;99.90;;;;;;4976673;28;20923;-67
2022/10/31 15:50:28;;;;;;;17.67;12.33;;;18.50;99.90;;;;;;4976908;28;20446;-68
2022/10/31 15:52:56;;;;;;;17.97;13.93;;;18.50;99.90;;;;;;4976589;28;20911;-66
2022/10/31 15:55:27;;;;;;;21.87;14.43;;;18.40;99.90;;;;;;4976777;28;20483;-68
2022/10/31 15:57:57;;;;;;;21.23;15.63;;;18.30;99.90;;;;;;4976746;28;20439;-67
2022/10/31 16:00:27;;;;;;;23.80;16.83;;;18.20;99.90;;;;;;4976570;28;20454;-67
2022/10/31 16:03:04;;;;;;;22.47;16.80;;;18.00;99.90;;;;;;4976748;28;20443;-66
2022/10/31 16:05:37;;;;;;;24.07;13.83;;;17.90;99.90;;;;;;4976572;28;20447;-66
2022/10/31 16:08:06;;;;;;;22.20;17.47;;;17.80;99.90;;;;;;4976585;28;20513;-68
2022/10/31 16:10:35;;;;;;;25.97;16.93;;;17.70;99.90;;;;;;4976454;28;20549;-68
2022/10/31 16:13:03;;;;;;;23.67;17.80;;;17.70;99.90;;;;;;4976797;28;20454;-68
2022/10/31 16:15:30;;;;;;;21.63;17.80;;;17.70;99.90;;;;;;4976682;28;20537;-68
2022/10/31 16:17:57;;;;;;;24.73;19.03;;;17.60;99.90;;;;;;4976178;28;20842;-68
2022/10/31 16:20:27;;;;;;;30.13;22.90;;;17.40;99.90;;;;;;4976920;28;20942;-68
2022/10/31 16:22:56;;;;;;;31.03;22.53;;;17.30;99.90;;;;;;4976459;28;20446;-68
2022/10/31 16:25:27;;;;;;;23.53;20.63;;;17.30;99.90;;;;;;4976393;28;20521;-67
2022/10/31 16:27:58;;;;;;;24.47;19.50;;;17.20;99.90;;;;;;4976580;28;20471;-68
2022/10/31 16:30:35;;;;;;;24.90;19.30;;;17.20;99.90;;;;;;4976280;28;20443;-67
2022/10/31 16:33:02;;;;;;;22.47;16.33;;;17.20;99.90;;;;;;4976252;28;20461;-67
2022/10/31 16:35:34;;;;;;;23.20;16.50;;;17.20;99.90;;;;;;4976249;28;20463;-68
2022/10/31 16:38:01;;;;;;;25.10;14.30;;;17.10;99.90;;;;;;4976187;28;20501;-67
2022/10/31 16:40:30;;;;;;;20.83;13.40;;;17.00;99.90;;;;;;4976530;28;20459;-68
2022/10/31 16:42:58;;;;;;;17.80;13.60;;;17.00;99.90;;;;;;4976092;28;20455;-68
2022/10/31 16:45:28;;;;;;;20.40;15.17;;;16.90;99.90;;;;;;4976380;28;20863;-67
2022/10/31 16:48:02;;;;;;;18.03;13.27;;;16.80;99.90;;;;;;4976702;28;20454;-68
2022/10/31 16:50:28;;;;;;;17.80;12.40;;;16.80;99.90;;;;;;4976312;28;20447;-67
2022/10/31 16:52:55;;;;;;;18.40;11.73;;;16.70;99.90;;;;;;4976272;28;20450;-67
2022/10/31 16:55:22;;;;;;;20.73;12.93;;;16.70;99.90;;;;;;4976695;28;20455;-67
2022/10/31 16:57:53;;;;;;;16.10;14.37;;;16.70;99.90;;;;;;4976928;28;20474;-68
2022/10/31 17:00:22;;;;;;;15.50;13.77;;;16.70;99.90;;;;;;4975626;28;20993;-67
2022/10/31 17:02:51;;;;;;;18.03;16.33;;;16.70;99.90;;;;;;4976678;28;20446;-66
2022/10/31 17:05:20;;;;;;;23.70;21.40;;;16.70;99.90;;;;;;4976212;28;20462;-67
2022/10/31 17:07:47;;;;;;;24.53;21.93;;;16.60;99.90;;;;;;4975899;28;20458;-67
2022/10/31 17:10:15;;;;;;;20.17;15.57;;;16.60;99.90;;;;;;4975602;28;20459;-67
2022/10/31 17:12:44;;;;;;;20.93;15.20;;;16.60;99.90;;;;;;4976668;28;20454;-67
2022/10/31 17:15:17;;;;;;;21.57;14.30;;;16.50;99.90;;;;;;4975818;28;20459;-68
2022/10/31 17:17:44;;;;;;;20.83;14.83;;;16.50;99.90;;;;;;4975735;28;20459;-70
2022/10/31 17:20:20;;;;;;;19.97;14.90;;;16.40;99.90;;;;;;4975647;28;20902;-70
2022/10/31 17:22:47;;;;;;;18.87;15.10;;;16.30;99.90;;;;;;4975858;28;20474;-71
2022/10/31 17:25:15;;;;;;;17.30;15.00;;;16.30;99.90;;;;;;4975767;28;20454;-67
2022/10/31 17:27:42;;;;;;;19.60;14.90;;;16.30;99.90;;;;;;4981716;28;20521;-68
2022/10/31 17:30:12;;;;;;;19.40;15.47;;;16.20;99.90;;;;;;4977553;28;20458;-68
2022/10/31 17:32:40;;;;;;;18.40;15.73;;;16.20;99.90;;;;;;4976745;28;20812;-67
2022/10/31 17:35:07;;;;;;;19.47;14.73;;;16.20;99.90;;;;;;4975671;28;20458;-68
2022/10/31 17:37:34;;;;;;;22.73;15.23;;;16.10;99.90;;;;;;4975797;28;20581;-70
2022/10/31 17:40:01;;;;;;;17.73;13.80;;;16.10;99.90;;;;;;4975321;28;20458;-69
2022/10/31 17:42:27;;;;;;;16.43;14.77;;;16.10;99.90;;;;;;4975264;28;20475;-68
2022/10/31 17:44:54;;;;;;;20.63;14.60;;;16.10;99.90;;;;;;4975182;28;20459;-68
2022/10/31 17:47:21;;;;;;;16.07;14.30;;;16.00;99.90;;;;;;4974991;28;20454;-69
2022/10/31 17:49:49;;;;;;;16.93;14.27;;;15.90;99.90;;;;;;4975848;28;20474;-68
2022/10/31 17:52:15;;;;;;;16.10;14.50;;;15.90;99.90;;;;;;4975283;28;20474;-69
2022/10/31 17:54:42;;;;;;;16.93;13.93;;;15.80;99.90;;;;;;4975041;28;20455;-70
2022/10/31 17:57:09;;;;;;;18.90;14.93;;;15.80;99.90;;;;;;4975138;28;20512;-69
2022/10/31 17:59:35;;;;;;;23.20;16.13;;;15.70;99.90;;;;;;4975800;28;20451;-69